Time;durP1;ratioP1;P1;durP2;ratioP2;P2;SDS_P1;SDS_P2;PMS_P1;PMS_P2;Temp;Humidity;BMP_temperature;BMP_pressure;BME280_temperature;BME280_humidity;BME280_pressure;Samples;Min_cycle;Max_cycle;Signal;HPM_P1;HPM_P2
2021/09/02 00:00:32;;;;;;;76.87;51.43;;;10.40;99.90;;;;;;5123762;27;20521;-69
2021/09/02 00:02:59;;;;;;;78.87;51.73;;;10.30;99.90;;;;;;5122465;27;20584;-70
2021/09/02 00:05:27;;;;;;;69.07;50.17;;;10.30;99.90;;;;;;5115304;28;20544;-70
2021/09/02 00:07:55;;;;;;;72.30;51.20;;;10.20;99.90;;;;;;5121027;27;20459;-70
2021/09/02 00:10:23;;;;;;;66.80;47.00;;;10.10;99.90;;;;;;5113377;28;20458;-70
2021/09/02 00:12:50;;;;;;;77.77;51.10;;;10.10;99.90;;;;;;5116311;28;20479;-70
2021/09/02 00:15:17;;;;;;;69.03;48.97;;;10.10;99.90;;;;;;5129336;27;20460;-71
2021/09/02 00:17:44;;;;;;;65.90;48.27;;;10.10;99.90;;;;;;5118982;28;20558;-69
2021/09/02 00:20:12;;;;;;;75.50;50.93;;;10.10;99.90;;;;;;5116547;27;20453;-71
2021/09/02 00:22:40;;;;;;;76.43;51.33;;;10.10;99.90;;;;;;5123187;27;20482;-70
2021/09/02 00:25:09;;;;;;;70.10;49.23;;;10.10;99.90;;;;;;5123054;27;20455;-69
2021/09/02 00:27:36;;;;;;;79.03;50.97;;;10.00;99.90;;;;;;5125278;27;20467;-69
2021/09/02 00:30:05;;;;;;;82.00;54.80;;;10.00;99.90;;;;;;5119348;27;20456;-73
2021/09/02 00:32:32;;;;;;;73.30;49.67;;;10.00;99.90;;;;;;5119420;27;20452;-70
2021/09/02 00:34:59;;;;;;;68.60;50.27;;;10.00;99.90;;;;;;5127846;27;20462;-70
2021/09/02 00:37:27;;;;;;;67.00;47.27;;;9.90;99.90;;;;;;5117475;27;20455;-70
2021/09/02 00:39:54;;;;;;;70.07;48.20;;;9.90;99.90;;;;;;5112193;27;20457;-70
2021/09/02 00:42:23;;;;;;;72.93;50.07;;;9.80;99.90;;;;;;5115976;27;21047;-71
2021/09/02 00:44:51;;;;;;;68.17;45.93;;;9.80;99.90;;;;;;5123700;27;20463;-72
2021/09/02 00:47:19;;;;;;;67.00;45.50;;;9.70;99.90;;;;;;5124290;27;20467;-70
2021/09/02 00:49:47;;;;;;;66.10;47.10;;;9.60;99.90;;;;;;5123934;27;20499;-72
2021/09/02 00:52:16;;;;;;;59.80;44.30;;;9.60;99.90;;;;;;5122087;27;20457;-69
2021/09/02 00:54:44;;;;;;;65.57;47.03;;;9.60;99.90;;;;;;5122665;27;20452;-69
2021/09/02 00:57:11;;;;;;;62.97;46.87;;;9.60;99.90;;;;;;5122964;27;20456;-70
2021/09/02 00:59:40;;;;;;;69.97;49.83;;;9.50;99.90;;;;;;5117759;27;20994;-69
2021/09/02 01:02:09;;;;;;;61.93;46.30;;;9.50;99.90;;;;;;5119587;27;20490;-70
2021/09/02 01:04:36;;;;;;;63.23;45.83;;;9.50;99.90;;;;;;5132962;27;20511;-70
2021/09/02 01:07:04;;;;;;;59.93;45.80;;;9.40;99.90;;;;;;5125784;27;20452;-69
2021/09/02 01:09:33;;;;;;;57.60;43.60;;;9.40;99.90;;;;;;5122771;27;20948;-69
2021/09/02 01:12:20;;;;;;;62.27;45.57;;;9.30;99.90;;;;;;5130814;27;20467;-68
2021/09/02 01:14:48;;;;;;;57.10;45.00;;;9.30;99.90;;;;;;5119298;27;20471;-68
2021/09/02 01:17:15;;;;;;;61.90;44.60;;;9.20;99.90;;;;;;5132782;27;20509;-69
2021/09/02 01:19:42;;;;;;;71.70;46.40;;;9.20;99.90;;;;;;5120823;27;20973;-69
2021/09/02 01:22:08;;;;;;;72.47;46.60;;;9.20;99.90;;;;;;5125232;27;20487;-70
2021/09/02 01:24:37;;;;;;;57.87;45.20;;;9.20;99.90;;;;;;5126942;27;20462;-72
2021/09/02 01:27:04;;;;;;;57.87;44.33;;;9.20;99.90;;;;;;5119243;27;20455;-73
2021/09/02 01:29:31;;;;;;;58.50;44.47;;;9.20;99.90;;;;;;5118129;27;20452;-69
2021/09/02 01:31:59;;;;;;;64.40;44.37;;;9.10;99.90;;;;;;5122082;27;20469;-70
2021/09/02 01:34:26;;;;;;;70.20;48.10;;;9.10;99.90;;;;;;5131543;27;20458;-69
2021/09/02 01:36:53;;;;;;;61.73;45.90;;;9.00;99.90;;;;;;5122796;27;20920;-72
2021/09/02 01:39:21;;;;;;;60.67;43.63;;;9.00;99.90;;;;;;5125905;27;20466;-70
2021/09/02 01:41:50;;;;;;;62.90;43.80;;;8.90;99.90;;;;;;5123354;27;20488;-69
2021/09/02 01:44:17;;;;;;;63.23;45.37;;;9.00;99.90;;;;;;5125993;27;20452;-70
2021/09/02 01:46:44;;;;;;;66.47;46.03;;;9.00;99.90;;;;;;5129577;27;20543;-71
2021/09/02 01:49:11;;;;;;;58.50;43.93;;;9.00;99.90;;;;;;5123649;27;20460;-69
2021/09/02 01:51:38;;;;;;;54.97;43.87;;;8.90;99.90;;;;;;5123205;27;20467;-71
2021/09/02 01:54:05;;;;;;;55.80;41.33;;;8.90;99.90;;;;;;5123650;27;21052;-69
2021/09/02 01:56:32;;;;;;;58.20;42.20;;;8.90;99.90;;;;;;5130101;27;20466;-70
2021/09/02 01:59:00;;;;;;;59.50;45.90;;;8.90;99.90;;;;;;5124489;27;20477;-69
2021/09/02 02:01:28;;;;;;;62.90;44.37;;;8.90;99.90;;;;;;5123753;27;20477;-69
2021/09/02 02:03:55;;;;;;;56.07;43.07;;;9.00;99.90;;;;;;5125905;27;20452;-70
2021/09/02 02:06:22;;;;;;;68.10;46.00;;;9.10;99.90;;;;;;5131923;27;20768;-69
2021/09/02 02:08:49;;;;;;;70.30;48.10;;;9.20;99.90;;;;;;5115513;27;20532;-70
2021/09/02 02:11:16;;;;;;;80.40;49.20;;;9.30;99.90;;;;;;5122430;27;20455;-69
2021/09/02 02:13:44;;;;;;;73.97;47.00;;;9.50;99.90;;;;;;5120356;27;20473;-70
2021/09/02 02:16:12;;;;;;;77.37;48.37;;;9.60;99.90;;;;;;5111904;27;20538;-70
2021/09/02 02:18:40;;;;;;;73.37;49.17;;;9.80;99.90;;;;;;5125017;27;20460;-70
2021/09/02 02:21:08;;;;;;;75.93;46.77;;;9.90;99.90;;;;;;5124421;27;20468;-71
2021/09/02 02:23:34;;;;;;;64.40;43.87;;;10.00;99.90;;;;;;5117589;27;20483;-69
2021/09/02 02:26:02;;;;;;;66.50;44.37;;;10.20;99.90;;;;;;5123796;27;20458;-69
2021/09/02 02:28:29;;;;;;;66.30;45.60;;;10.30;99.90;;;;;;5117642;27;20555;-69
2021/09/02 02:30:56;;;;;;;51.23;40.87;;;10.40;99.90;;;;;;5116925;27;20444;-70
2021/09/02 02:33:25;;;;;;;55.60;43.50;;;10.50;99.90;;;;;;5125183;27;20464;-69
2021/09/02 02:35:53;;;;;;;60.93;43.07;;;10.60;99.90;;;;;;5119633;27;20451;-72
2021/09/02 02:38:20;;;;;;;59.13;43.17;;;10.70;99.90;;;;;;5116323;27;20572;-70
2021/09/02 02:40:47;;;;;;;59.13;43.70;;;10.70;99.90;;;;;;5124645;27;20468;-70
2021/09/02 02:43:14;;;;;;;63.03;44.40;;;10.80;99.90;;;;;;5118062;27;20485;-70
2021/09/02 02:45:42;;;;;;;79.73;53.63;;;10.90;99.90;;;;;;5116469;27;20459;-70
2021/09/02 02:48:09;;;;;;;67.70;47.23;;;10.90;99.90;;;;;;5121485;27;20453;-70
2021/09/02 02:50:37;;;;;;;72.13;49.03;;;11.00;99.90;;;;;;5119805;27;20453;-70
2021/09/02 02:53:05;;;;;;;73.93;49.40;;;11.10;99.90;;;;;;5119576;27;20448;-70
2021/09/02 02:55:33;;;;;;;78.27;49.33;;;11.20;99.90;;;;;;5123823;27;20456;-72
2021/09/02 02:58:00;;;;;;;65.30;49.07;;;11.20;99.90;;;;;;5125222;27;20463;-71
2021/09/02 03:00:27;;;;;;;72.60;49.33;;;11.20;99.90;;;;;;5120653;27;20539;-70
2021/09/02 03:02:54;;;;;;;70.37;48.50;;;11.20;99.90;;;;;;5114195;27;20484;-71
2021/09/02 03:05:22;;;;;;;74.50;49.87;;;11.20;99.90;;;;;;5130390;27;20468;-71
2021/09/02 03:07:51;;;;;;;77.93;50.67;;;11.30;99.90;;;;;;5118686;27;20457;-70
2021/09/02 03:10:18;;;;;;;72.43;50.17;;;11.40;99.90;;;;;;5123412;27;20784;-70
2021/09/02 03:12:45;;;;;;;74.17;48.80;;;11.30;99.90;;;;;;5123470;27;20456;-70
2021/09/02 03:15:13;;;;;;;73.10;49.90;;;11.20;99.90;;;;;;5119198;27;20457;-72
2021/09/02 03:17:41;;;;;;;58.63;44.20;;;11.30;99.90;;;;;;5116684;27;20480;-71
2021/09/02 03:20:10;;;;;;;73.83;50.77;;;11.20;99.90;;;;;;5123180;27;20544;-70
2021/09/02 03:22:38;;;;;;;64.73;45.90;;;11.20;99.90;;;;;;5116010;27;20495;-72
2021/09/02 03:25:08;;;;;;;66.27;45.53;;;11.20;99.90;;;;;;5127070;27;20807;-71
2021/09/02 03:27:34;;;;;;;64.90;47.00;;;11.20;99.90;;;;;;5113685;27;20456;-70
2021/09/02 03:30:01;;;;;;;68.90;46.97;;;11.20;99.90;;;;;;5123410;27;20456;-70
2021/09/02 03:32:28;;;;;;;70.40;48.77;;;11.20;99.90;;;;;;5119771;27;20461;-72
2021/09/02 03:34:55;;;;;;;63.10;47.67;;;11.20;99.90;;;;;;5121211;27;20445;-70
2021/09/02 03:37:22;;;;;;;60.97;46.33;;;11.20;99.90;;;;;;5134121;27;20815;-70
2021/09/02 03:39:49;;;;;;;62.40;48.57;;;11.10;99.90;;;;;;5117865;27;20456;-70
2021/09/02 03:42:17;;;;;;;68.33;48.30;;;11.10;99.90;;;;;;5116526;27;20484;-72
2021/09/02 03:44:44;;;;;;;67.20;47.97;;;11.00;99.90;;;;;;5122019;27;20469;-70
2021/09/02 03:47:11;;;;;;;71.57;47.93;;;11.10;99.90;;;;;;5121354;27;20453;-73
2021/09/02 03:49:38;;;;;;;67.03;48.30;;;11.00;99.90;;;;;;5119795;27;21086;-72
2021/09/02 03:52:06;;;;;;;64.60;47.27;;;10.90;99.90;;;;;;5122689;27;20467;-70
2021/09/02 03:54:33;;;;;;;63.90;47.47;;;10.90;99.90;;;;;;5117718;27;20463;-70
2021/09/02 03:57:00;;;;;;;64.70;46.70;;;10.90;99.90;;;;;;5119603;27;20923;-73
2021/09/02 03:59:29;;;;;;;70.20;48.73;;;10.90;99.90;;;;;;5114053;27;20508;-70
2021/09/02 04:01:55;;;;;;;67.93;46.30;;;10.80;99.90;;;;;;5119750;27;20490;-70
2021/09/02 04:04:22;;;;;;;76.80;49.50;;;10.80;99.90;;;;;;5126181;27;20472;-69
2021/09/02 04:06:49;;;;;;;87.40;50.70;;;10.70;99.90;;;;;;5123170;27;20456;-71
2021/09/02 04:09:18;;;;;;;79.77;49.53;;;10.70;99.90;;;;;;5120115;27;20456;-70
2021/09/02 04:11:44;;;;;;;91.20;51.33;;;10.60;99.90;;;;;;5115941;27;20457;-70
2021/09/02 04:14:11;;;;;;;76.23;50.37;;;10.60;99.90;;;;;;5115669;27;20456;-72
2021/09/02 04:16:39;;;;;;;66.93;49.10;;;10.60;99.90;;;;;;5129664;27;20902;-72
2021/09/02 04:19:06;;;;;;;82.77;49.40;;;10.60;99.90;;;;;;5132901;27;20467;-70
2021/09/02 04:21:33;;;;;;;76.27;49.17;;;10.60;99.90;;;;;;5122918;27;21001;-70
2021/09/02 04:24:00;;;;;;;78.73;47.77;;;10.50;99.90;;;;;;5123758;27;20479;-71
2021/09/02 04:26:28;;;;;;;87.40;47.67;;;10.50;99.90;;;;;;5128782;27;20982;-72
2021/09/02 04:28:55;;;;;;;86.43;48.93;;;10.50;99.90;;;;;;5127780;27;20623;-71
2021/09/02 04:31:21;;;;;;;75.07;49.47;;;10.50;99.90;;;;;;5113132;27;20452;-70
2021/09/02 04:33:49;;;;;;;78.20;47.27;;;10.50;99.90;;;;;;5132957;27;20495;-72
2021/09/02 04:36:16;;;;;;;63.67;46.20;;;10.60;99.90;;;;;;5121092;27;20460;-72
2021/09/02 04:38:43;;;;;;;78.03;47.87;;;10.50;99.90;;;;;;5122500;27;20467;-70
2021/09/02 04:41:10;;;;;;;77.63;47.27;;;10.50;99.90;;;;;;5117986;27;20851;-71
2021/09/02 04:43:37;;;;;;;79.97;48.07;;;10.60;99.90;;;;;;5131932;27;20747;-70
2021/09/02 04:46:04;;;;;;;64.80;43.47;;;10.70;99.90;;;;;;5119885;27;20468;-71
2021/09/02 04:48:31;;;;;;;67.23;44.80;;;10.80;99.90;;;;;;5123763;27;20500;-70
2021/09/02 04:50:59;;;;;;;69.63;43.20;;;10.90;99.90;;;;;;5122898;27;20472;-71
2021/09/02 04:53:26;;;;;;;64.23;44.17;;;10.90;99.90;;;;;;5129985;27;20459;-69
2021/09/02 04:55:52;;;;;;;81.90;45.87;;;10.80;99.90;;;;;;5125915;27;20462;-70
2021/09/02 04:58:19;;;;;;;66.80;44.07;;;10.90;99.90;;;;;;5125157;27;20464;-72
2021/09/02 05:00:46;;;;;;;77.13;45.77;;;10.80;99.90;;;;;;5126666;27;20567;-70
2021/09/02 05:03:13;;;;;;;66.33;43.50;;;10.80;99.90;;;;;;5116869;27;20485;-72
2021/09/02 05:05:40;;;;;;;77.30;44.53;;;10.80;99.90;;;;;;5134190;27;20941;-70
2021/09/02 05:08:09;;;;;;;69.77;43.70;;;10.80;99.90;;;;;;5133709;27;20881;-70
2021/09/02 05:10:36;;;;;;;63.53;44.07;;;10.80;99.90;;;;;;5120349;27;20483;-69
2021/09/02 05:13:03;;;;;;;61.33;42.77;;;10.70;99.90;;;;;;5123232;27;20465;-70
2021/09/02 05:15:30;;;;;;;57.83;40.20;;;10.70;99.90;;;;;;5118362;27;20492;-72
2021/09/02 05:17:57;;;;;;;74.80;43.80;;;10.60;99.90;;;;;;5128769;27;20456;-71
2021/09/02 05:20:24;;;;;;;72.33;44.63;;;10.60;99.90;;;;;;5119874;27;20467;-69
2021/09/02 05:22:51;;;;;;;73.20;44.60;;;10.50;99.90;;;;;;5132371;27;20487;-70
2021/09/02 05:25:19;;;;;;;63.30;42.23;;;10.60;99.90;;;;;;5123563;27;20458;-70
2021/09/02 05:27:46;;;;;;;58.20;41.60;;;10.50;99.90;;;;;;5124910;27;21288;-70
2021/09/02 05:30:14;;;;;;;54.80;42.97;;;10.50;99.90;;;;;;5134083;27;20450;-69
2021/09/02 05:32:41;;;;;;;66.93;41.87;;;10.50;99.90;;;;;;5125916;27;20505;-70
2021/09/02 05:35:09;;;;;;;60.27;41.57;;;10.50;99.90;;;;;;5117773;27;21060;-70
2021/09/02 05:37:37;;;;;;;60.77;39.90;;;10.60;99.90;;;;;;5123139;27;20452;-69
2021/09/02 05:40:06;;;;;;;69.57;41.97;;;10.70;99.90;;;;;;5119491;27;20467;-69
2021/09/02 05:42:36;;;;;;;59.93;41.67;;;10.80;99.90;;;;;;5120016;27;21521;-71
2021/09/02 05:45:04;;;;;;;66.30;43.10;;;11.00;99.90;;;;;;5130111;27;20454;-71
2021/09/02 05:47:31;;;;;;;64.50;40.77;;;11.20;99.90;;;;;;5131196;27;20449;-69
2021/09/02 05:49:59;;;;;;;59.03;41.87;;;11.40;99.90;;;;;;5127248;27;20463;-69
2021/09/02 05:52:26;;;;;;;59.57;41.50;;;11.60;99.90;;;;;;5123659;27;20453;-69
2021/09/02 05:54:55;;;;;;;64.13;41.27;;;11.70;99.90;;;;;;5129607;27;20479;-70
2021/09/02 05:57:22;;;;;;;59.80;39.57;;;12.00;99.90;;;;;;5118443;27;20464;-70
2021/09/02 05:59:51;;;;;;;60.10;40.90;;;12.20;99.90;;;;;;5124999;27;20869;-69
2021/09/02 06:02:18;;;;;;;66.67;40.73;;;12.40;99.90;;;;;;5122395;27;21067;-69
2021/09/02 06:04:46;;;;;;;58.00;41.20;;;12.60;99.90;;;;;;5126432;27;21026;-69
2021/09/02 06:07:12;;;;;;;61.30;41.53;;;12.80;99.90;;;;;;5113154;27;20465;-69
2021/09/02 06:09:39;;;;;;;53.17;40.03;;;13.00;99.90;;;;;;5123826;27;20460;-72
2021/09/02 06:12:08;;;;;;;54.10;39.80;;;13.10;99.90;;;;;;5129853;27;20990;-70
2021/09/02 06:14:36;;;;;;;57.70;40.40;;;13.10;99.90;;;;;;5115954;27;20461;-71
2021/09/02 06:17:04;;;;;;;54.37;39.67;;;13.10;99.90;;;;;;5128821;27;20472;-72
2021/09/02 06:19:32;;;;;;;64.83;41.87;;;13.10;99.90;;;;;;5119907;27;20957;-69
2021/09/02 06:21:58;;;;;;;49.83;39.23;;;13.10;99.90;;;;;;5121988;27;20519;-70
2021/09/02 06:24:26;;;;;;;60.23;39.97;;;13.20;99.90;;;;;;5124191;27;20480;-72
2021/09/02 06:26:53;;;;;;;62.30;41.10;;;13.20;99.90;;;;;;5116144;27;20468;-70
2021/09/02 06:29:21;;;;;;;51.37;38.93;;;13.30;99.90;;;;;;5124094;27;20459;-69
2021/09/02 06:31:47;;;;;;;59.87;41.80;;;13.30;99.90;;;;;;5124053;27;20456;-70
2021/09/02 06:34:16;;;;;;;48.23;39.03;;;13.40;99.90;;;;;;5121057;27;20455;-69
2021/09/02 06:36:44;;;;;;;53.17;40.13;;;13.50;99.90;;;;;;5123224;27;20466;-69
2021/09/02 06:39:11;;;;;;;50.40;36.97;;;13.60;99.90;;;;;;5131266;27;20826;-69
2021/09/02 06:41:38;;;;;;;47.73;37.00;;;13.60;99.90;;;;;;5130788;27;20444;-69
2021/09/02 06:44:05;;;;;;;55.63;37.80;;;13.70;99.90;;;;;;5121833;27;20472;-69
2021/09/02 06:46:33;;;;;;;55.40;37.97;;;13.80;99.90;;;;;;5124818;27;20547;-70
2021/09/02 06:49:00;;;;;;;48.07;36.40;;;13.90;99.90;;;;;;5121589;27;20459;-70
2021/09/02 06:51:29;;;;;;;49.80;37.00;;;14.00;99.90;;;;;;5118385;27;20456;-70
2021/09/02 06:53:56;;;;;;;55.67;38.40;;;14.10;99.90;;;;;;5116521;27;20817;-72
2021/09/02 06:56:24;;;;;;;55.33;37.17;;;14.20;99.90;;;;;;5117201;27;20457;-70
2021/09/02 06:58:51;;;;;;;54.73;39.27;;;14.40;99.90;;;;;;5118158;27;21336;-69
2021/09/02 07:01:19;;;;;;;50.67;37.63;;;14.40;99.90;;;;;;5119468;27;20998;-72
2021/09/02 07:03:46;;;;;;;44.70;35.77;;;14.40;99.90;;;;;;5122032;27;20521;-68
2021/09/02 07:06:13;;;;;;;50.40;37.73;;;14.60;99.90;;;;;;5120811;27;20456;-71
2021/09/02 07:08:42;;;;;;;47.53;35.53;;;14.70;99.90;;;;;;5125684;27;20820;-69
2021/09/02 07:11:09;;;;;;;45.07;33.47;;;14.80;99.90;;;;;;5124986;27;20471;-70
2021/09/02 07:13:36;;;;;;;47.00;34.50;;;14.90;99.90;;;;;;5120807;27;20460;-69
2021/09/02 07:16:06;;;;;;;46.57;33.23;;;15.10;99.90;;;;;;5124403;27;20488;-69
2021/09/02 07:18:32;;;;;;;38.23;32.63;;;15.20;99.90;;;;;;5119523;27;20461;-71
2021/09/02 07:20:59;;;;;;;38.80;32.90;;;15.10;99.90;;;;;;5117063;27;20468;-69
2021/09/02 07:23:26;;;;;;;39.03;31.17;;;15.10;99.90;;;;;;5113726;27;20620;-70
2021/09/02 07:25:55;;;;;;;44.47;31.13;;;15.40;99.90;;;;;;5118405;27;20497;-69
2021/09/02 07:28:22;;;;;;;36.40;29.37;;;15.60;99.90;;;;;;5116281;27;20457;-69
2021/09/02 07:30:48;;;;;;;45.90;32.83;;;15.70;99.90;;;;;;5129727;27;20456;-69
2021/09/02 07:33:15;;;;;;;39.50;32.30;;;15.80;99.90;;;;;;5128974;27;20476;-70
2021/09/02 07:35:42;;;;;;;44.77;33.13;;;15.90;99.90;;;;;;5120887;27;20947;-72
2021/09/02 07:38:09;;;;;;;40.70;32.10;;;15.80;99.90;;;;;;5111663;27;20552;-69
2021/09/02 07:40:37;;;;;;;41.97;32.10;;;16.00;99.90;;;;;;5118559;27;20460;-71
2021/09/02 07:43:07;;;;;;;43.23;31.43;;;16.30;99.90;;;;;;5129934;27;20462;-70
2021/09/02 07:45:34;;;;;;;36.60;30.47;;;16.50;99.90;;;;;;5117889;27;20629;-70
2021/09/02 07:48:02;;;;;;;38.23;32.70;;;16.50;99.90;;;;;;5130209;27;20440;-69
2021/09/02 07:50:29;;;;;;;37.20;29.30;;;16.60;99.90;;;;;;5123972;27;20467;-71
2021/09/02 07:52:56;;;;;;;34.67;29.40;;;16.90;99.90;;;;;;5121171;27;20529;-71
2021/09/02 07:55:24;;;;;;;36.40;29.50;;;17.20;99.90;;;;;;5113119;27;20452;-73
2021/09/02 07:57:51;;;;;;;33.20;29.63;;;17.50;99.90;;;;;;5122259;27;20551;-72
2021/09/02 08:00:19;;;;;;;32.60;29.03;;;17.70;99.90;;;;;;5133808;27;20462;-70
2021/09/02 08:02:47;;;;;;;32.63;29.40;;;17.70;99.90;;;;;;5119208;28;20476;-73
2021/09/02 08:05:14;;;;;;;29.67;26.47;;;17.80;99.90;;;;;;5120793;27;20503;-69
2021/09/02 08:07:46;;;;;;;30.60;27.37;;;17.90;99.90;;;;;;5123788;27;20455;-71
2021/09/02 08:10:13;;;;;;;29.63;26.90;;;17.80;99.90;;;;;;5120053;27;20456;-69
2021/09/02 08:12:41;;;;;;;28.90;26.20;;;17.70;99.90;;;;;;5132319;27;20943;-70
2021/09/02 08:15:09;;;;;;;34.73;27.70;;;17.60;99.90;;;;;;5113881;28;20515;-70
2021/09/02 08:17:37;;;;;;;29.87;26.73;;;17.60;99.90;;;;;;5114179;27;20491;-70
2021/09/02 08:20:05;;;;;;;32.07;28.73;;;17.70;99.90;;;;;;5122986;27;20555;-68
2021/09/02 08:22:32;;;;;;;31.43;28.23;;;17.80;99.90;;;;;;5124032;27;20465;-69
2021/09/02 08:24:59;;;;;;;30.33;27.23;;;17.90;99.90;;;;;;5123512;27;20488;-71
2021/09/02 08:27:26;;;;;;;31.87;29.00;;;17.80;99.90;;;;;;5120242;27;20456;-69
2021/09/02 08:29:54;;;;;;;29.73;26.73;;;17.90;99.90;;;;;;5126116;27;20537;-69
2021/09/02 08:32:21;;;;;;;30.17;26.33;;;18.00;99.90;;;;;;5114546;27;21067;-70
2021/09/02 08:34:49;;;;;;;28.60;26.00;;;18.00;99.90;;;;;;5123378;27;20456;-70
2021/09/02 08:37:16;;;;;;;28.67;25.70;;;18.10;99.90;;;;;;5131698;27;20467;-69
2021/09/02 08:39:43;;;;;;;30.60;27.47;;;17.90;99.90;;;;;;5130072;27;21041;-71
2021/09/02 08:42:10;;;;;;;28.87;26.23;;;18.10;99.90;;;;;;5126454;27;20464;-70
2021/09/02 08:44:37;;;;;;;31.83;28.10;;;18.20;99.90;;;;;;5118504;28;20475;-69
2021/09/02 08:47:05;;;;;;;29.47;26.77;;;18.20;99.90;;;;;;5118473;27;20463;-70
2021/09/02 08:49:32;;;;;;;27.50;24.70;;;18.30;99.90;;;;;;5112982;28;20555;-73
2021/09/02 08:52:00;;;;;;;29.40;26.73;;;18.30;99.90;;;;;;5120251;27;20947;-69
2021/09/02 08:54:27;;;;;;;28.73;26.03;;;18.40;99.90;;;;;;5119160;28;20460;-70
2021/09/02 08:56:54;;;;;;;28.47;25.67;;;18.30;99.90;;;;;;5130055;27;20458;-72
2021/09/02 08:59:21;;;;;;;29.77;26.77;;;18.40;99.90;;;;;;5126966;27;20458;-70
2021/09/02 09:01:50;;;;;;;27.40;24.70;;;18.60;99.90;;;;;;5125330;27;21161;-71
2021/09/02 09:04:18;;;;;;;29.77;27.00;;;18.70;99.90;;;;;;5123750;27;20490;-71
2021/09/02 09:06:45;;;;;;;30.43;26.23;;;18.90;99.90;;;;;;5121212;27;20542;-69
2021/09/02 09:09:14;;;;;;;33.63;28.53;;;19.40;99.90;;;;;;5125545;27;20455;-70
2021/09/02 09:11:48;;;;;;;28.50;25.67;;;19.80;99.90;;;;;;5122633;27;20615;-71
2021/09/02 09:14:18;;;;;;;32.10;25.33;;;20.50;99.90;;;;;;5116851;27;20927;-69
2021/09/02 09:16:48;;;;;;;27.83;24.67;;;21.50;99.90;;;;;;5121730;27;20499;-72
2021/09/02 09:19:41;;;;;;;28.17;25.13;;;22.00;99.90;;;;;;5121577;27;20460;-70
2021/09/02 09:22:11;;;;;;;28.23;25.40;;;22.50;99.90;;;;;;5120715;27;20456;-70
2021/09/02 09:24:49;;;;;;;27.87;25.07;;;22.80;99.90;;;;;;5129041;27;21523;-72
2021/09/02 09:27:18;;;;;;;27.27;25.07;;;23.40;99.90;;;;;;5127897;27;20448;-70
2021/09/02 09:29:45;;;;;;;27.80;25.00;;;23.60;99.90;;;;;;5119563;27;20460;-71
2021/09/02 09:32:15;;;;;;;32.37;25.30;;;24.20;99.90;;;;;;5127453;27;20479;-68
2021/09/02 09:34:50;;;;;;;26.30;24.10;;;23.70;99.90;;;;;;5122984;27;20449;-70
2021/09/02 09:37:18;;;;;;;28.43;25.87;;;24.00;99.90;;;;;;5121836;27;20452;-70
2021/09/02 09:39:48;;;;;;;29.37;26.37;;;24.30;99.90;;;;;;5123403;27;21014;-70
2021/09/02 09:42:18;;;;;;;27.87;24.93;;;23.60;99.90;;;;;;5133002;27;20455;-71
2021/09/02 09:44:45;;;;;;;35.20;26.30;;;24.30;99.90;;;;;;5124125;27;21010;-70
2021/09/02 09:47:14;;;;;;;27.40;25.07;;;24.50;99.90;;;;;;5123863;27;20456;-70
2021/09/02 09:49:44;;;;;;;27.30;24.87;;;25.00;99.90;;;;;;5124555;27;20455;-68
2021/09/02 09:52:22;;;;;;;28.63;25.83;;;25.00;99.90;;;;;;5127128;27;20460;-72
2021/09/02 09:54:51;;;;;;;27.87;25.40;;;25.60;99.90;;;;;;5113965;27;20467;-70
2021/09/02 09:57:19;;;;;;;27.83;25.40;;;25.60;99.90;;;;;;5128919;27;20507;-72
2021/09/02 09:59:46;;;;;;;29.00;26.10;;;25.90;99.90;;;;;;5125665;27;20962;-69
2021/09/02 10:02:13;;;;;;;28.67;23.70;;;26.40;99.90;;;;;;5119663;27;20483;-69
2021/09/02 10:04:43;;;;;;;27.90;25.40;;;26.90;99.90;;;;;;5123276;27;20506;-70
2021/09/02 10:07:13;;;;;;;27.00;24.30;;;27.00;99.90;;;;;;5124585;27;20448;-69
2021/09/02 10:09:40;;;;;;;25.97;23.70;;;26.40;99.90;;;;;;5132142;27;20456;-69
2021/09/02 10:12:11;;;;;;;27.83;24.93;;;26.10;99.90;;;;;;5113336;27;20468;-70
2021/09/02 10:14:39;;;;;;;28.07;25.30;;;26.50;99.90;;;;;;5133726;27;20483;-71
2021/09/02 10:17:07;;;;;;;27.60;25.03;;;27.10;99.90;;;;;;5121369;27;20977;-72
2021/09/02 10:19:36;;;;;;;26.50;24.10;;;27.40;99.90;;;;;;5114681;27;20468;-70
2021/09/02 10:22:04;;;;;;;26.17;23.83;;;27.30;99.90;;;;;;5125059;27;20549;-70
2021/09/02 10:24:38;;;;;;;26.23;24.00;;;27.30;99.90;;;;;;5129998;27;20553;-70
2021/09/02 10:27:39;;;;;;;27.40;24.70;;;27.10;99.90;;;;;;5134121;27;20485;-71
2021/09/02 10:30:23;;;;;;;27.63;25.10;;;26.90;99.90;;;;;;5133425;27;20435;-71
2021/09/02 10:32:50;;;;;;;26.60;24.27;;;25.90;99.90;;;;;;5125607;27;20503;-72
2021/09/02 10:35:37;;;;;;;24.90;22.87;;;25.40;99.90;;;;;;5123877;27;21041;-71
2021/09/02 10:38:06;;;;;;;27.37;24.57;;;25.00;99.90;;;;;;5119615;27;20451;-73
2021/09/02 10:40:47;;;;;;;27.30;24.83;;;25.00;99.90;;;;;;5115356;27;20463;-70
2021/09/02 10:43:44;;;;;;;27.33;24.83;;;25.20;99.90;;;;;;5118265;27;20460;-70
2021/09/02 10:46:31;;;;;;;26.17;23.70;;;25.60;99.90;;;;;;5125793;27;20487;-70
2021/09/02 10:49:14;;;;;;;28.33;25.80;;;26.10;99.90;;;;;;5129989;27;20489;-70
2021/09/02 10:51:45;;;;;;;27.73;25.00;;;26.40;99.90;;;;;;5112001;27;20453;-70
2021/09/02 10:54:14;;;;;;;27.00;24.30;;;26.90;99.90;;;;;;5121500;27;20464;-69
2021/09/02 10:56:56;;;;;;;25.80;23.73;;;26.80;99.90;;;;;;5125218;27;20452;-72
2021/09/02 10:59:45;;;;;;;25.07;23.10;;;27.10;99.90;;;;;;5125822;27;20811;-70
2021/09/02 11:02:41;;;;;;;25.33;22.93;;;26.40;99.90;;;;;;5117383;27;20838;-72
2021/09/02 11:05:10;;;;;;;26.13;23.73;;;26.90;99.90;;;;;;5122932;27;20491;-71
2021/09/02 11:07:40;;;;;;;25.60;23.40;;;27.60;99.90;;;;;;5118376;27;20456;-70
2021/09/02 11:10:08;;;;;;;26.90;24.10;;;27.10;99.90;;;;;;5115492;27;20469;-69
2021/09/02 11:12:35;;;;;;;25.03;23.00;;;27.50;99.90;;;;;;5122048;27;20640;-70
2021/09/02 11:15:04;;;;;;;25.70;23.60;;;27.60;99.90;;;;;;5117845;27;20464;-69
2021/09/02 11:17:31;;;;;;;26.23;23.60;;;28.30;99.90;;;;;;5116286;27;20488;-69
2021/09/02 11:19:58;;;;;;;26.20;23.50;;;28.50;99.90;;;;;;5120894;27;20968;-69
2021/09/02 11:22:25;;;;;;;25.10;23.10;;;28.60;99.90;;;;;;5125572;27;20451;-69
2021/09/02 11:24:53;;;;;;;23.93;21.73;;;29.10;99.90;;;;;;5124926;27;20480;-69
2021/09/02 11:27:28;;;;;;;25.57;23.47;;;29.60;99.90;;;;;;5118882;27;20460;-69
2021/09/02 11:30:11;;;;;;;25.17;23.00;;;29.70;99.90;;;;;;5118840;27;20459;-71
2021/09/02 11:32:40;;;;;;;25.60;23.33;;;29.10;99.90;;;;;;5119011;27;20452;-69
2021/09/02 11:35:08;;;;;;;24.47;22.47;;;29.20;99.90;;;;;;5123038;27;20456;-70
2021/09/02 11:37:40;;;;;;;25.27;22.90;;;28.70;99.90;;;;;;5123311;27;20460;-69
2021/09/02 11:40:09;;;;;;;25.57;22.97;;;28.60;99.90;;;;;;5124791;27;20452;-67
2021/09/02 11:42:36;;;;;;;25.83;23.50;;;28.80;99.90;;;;;;5121684;27;20467;-68
2021/09/02 11:45:04;;;;;;;25.13;22.80;;;29.40;99.90;;;;;;5119859;27;20480;-69
2021/09/02 11:47:36;;;;;;;25.10;23.30;;;30.40;99.00;;;;;;5114221;28;20522;-68
2021/09/02 11:50:06;;;;;;;25.30;22.47;;;30.60;98.70;;;;;;5119503;28;20483;-69
2021/09/02 11:52:41;;;;;;;24.97;22.80;;;30.10;98.60;;;;;;5119671;28;20526;-69
2021/09/02 11:55:08;;;;;;;24.70;22.60;;;30.30;98.70;;;;;;5122125;27;20448;-68
2021/09/02 11:57:36;;;;;;;24.77;22.80;;;30.50;97.70;;;;;;5116125;28;20464;-68
2021/09/02 12:00:04;;;;;;;24.30;22.40;;;30.30;97.00;;;;;;5118048;28;20460;-69
2021/09/02 12:02:31;;;;;;;24.20;22.40;;;31.00;96.80;;;;;;5113213;27;20480;-72
2021/09/02 12:04:59;;;;;;;23.97;22.13;;;31.60;96.70;;;;;;5131434;27;21002;-72
2021/09/02 12:07:32;;;;;;;23.97;21.50;;;31.30;96.20;;;;;;5117583;27;20459;-68
2021/09/02 12:10:00;;;;;;;26.07;23.87;;;31.70;96.80;;;;;;5116710;27;20452;-69
2021/09/02 12:12:31;;;;;;;24.37;22.00;;;31.50;95.80;;;;;;5120833;27;20461;-71
2021/09/02 12:14:58;;;;;;;22.23;20.20;;;31.70;94.20;;;;;;5128037;27;20543;-69
2021/09/02 12:17:33;;;;;;;21.80;20.10;;;31.70;94.30;;;;;;5131272;27;20471;-68
2021/09/02 12:20:01;;;;;;;22.97;21.17;;;32.20;91.80;;;;;;5115599;28;20463;-68
2021/09/02 12:22:35;;;;;;;26.83;24.70;;;32.70;91.70;;;;;;5117326;27;21086;-68
2021/09/02 12:25:13;;;;;;;27.73;25.20;;;32.80;91.30;;;;;;5116929;28;20488;-68
2021/09/02 12:27:45;;;;;;;26.23;24.17;;;32.40;90.40;;;;;;5122097;27;20495;-69
2021/09/02 12:30:13;;;;;;;25.50;23.33;;;32.80;90.90;;;;;;5121576;27;20966;-71
2021/09/02 12:32:40;;;;;;;23.03;21.00;;;32.90;91.10;;;;;;5133066;27;20452;-71
2021/09/02 12:35:15;;;;;;;21.37;19.87;;;32.50;91.20;;;;;;5126320;27;20462;-68